Time;durP1;ratioP1;P1;durP2;ratioP2;P2;SDS_P1;SDS_P2;PMS_P1;PMS_P2;Temp;Humidity;BMP_temperature;BMP_pressure;BME280_temperature;BME280_humidity;BME280_pressure;Samples;Min_cycle;Max_cycle;Signal;HPM_P1;HPM_P2
2023/07/03 00:01:31;;;;;;;12.50;3.08;;;15.40;95.90;;;;;;4953765;28;20035;-66
2023/07/03 00:03:57;;;;;;;16.23;3.42;;;15.40;95.70;;;;;;4952497;28;20035;-65
2023/07/03 00:06:23;;;;;;;7.22;2.00;;;15.40;95.50;;;;;;4962642;28;20034;-64
2023/07/03 00:08:48;;;;;;;12.43;3.10;;;15.50;95.60;;;;;;4957465;28;20027;-66
2023/07/03 00:11:14;;;;;;;15.25;3.22;;;15.50;95.60;;;;;;4954957;28;20030;-66
2023/07/03 00:13:39;;;;;;;10.15;2.90;;;15.50;95.40;;;;;;4935769;28;20047;-63
2023/07/03 00:16:05;;;;;;;10.02;2.70;;;15.50;95.30;;;;;;4946309;28;20420;-66
2023/07/03 00:18:31;;;;;;;13.25;2.65;;;15.50;95.50;;;;;;4953071;28;20043;-62
2023/07/03 00:20:57;;;;;;;10.93;2.70;;;15.50;95.60;;;;;;4952859;28;20043;-65
2023/07/03 00:23:24;;;;;;;26.92;4.28;;;15.50;95.60;;;;;;4952564;28;20703;-65
2023/07/03 00:25:51;;;;;;;15.23;3.15;;;15.40;95.40;;;;;;4953020;28;20122;-65
2023/07/03 00:28:17;;;;;;;13.20;3.03;;;15.40;95.70;;;;;;4953574;28;20602;-65
2023/07/03 00:30:43;;;;;;;16.90;3.40;;;15.40;95.80;;;;;;4955176;28;20023;-65
2023/07/03 00:33:10;;;;;;;15.45;3.17;;;15.40;95.80;;;;;;4964134;28;20030;-67
2023/07/03 00:35:36;;;;;;;12.27;2.85;;;15.30;96.00;;;;;;4961061;28;20128;-65
2023/07/03 00:38:01;;;;;;;17.88;4.13;;;15.30;96.10;;;;;;4954655;28;20134;-65
2023/07/03 00:40:27;;;;;;;7.80;2.40;;;15.30;96.30;;;;;;4954747;28;20105;-64
2023/07/03 00:42:52;;;;;;;14.88;2.70;;;15.20;96.40;;;;;;4956973;28;20035;-64
2023/07/03 00:45:19;;;;;;;17.80;3.10;;;15.20;96.40;;;;;;4956388;28;21068;-66
2023/07/03 00:47:45;;;;;;;11.73;3.55;;;15.20;96.60;;;;;;4955989;28;20374;-65
2023/07/03 00:50:11;;;;;;;16.92;4.45;;;15.10;96.90;;;;;;4956255;28;20042;-65
2023/07/03 00:52:39;;;;;;;12.30;2.90;;;15.10;97.00;;;;;;4954593;28;20081;-65
2023/07/03 00:55:06;;;;;;;14.63;4.15;;;15.00;97.40;;;;;;4958849;28;20167;-64
2023/07/03 00:57:31;;;;;;;14.15;4.03;;;15.00;97.30;;;;;;4959923;28;20396;-65
2023/07/03 00:59:59;;;;;;;20.05;3.47;;;14.90;97.60;;;;;;4954745;28;20027;-66
2023/07/03 01:02:34;;;;;;;13.45;2.92;;;14.90;97.60;;;;;;4958755;28;20031;-65
2023/07/03 01:05:13;;;;;;;12.45;2.78;;;14.80;97.70;;;;;;4961746;28;20035;-64
2023/07/03 01:07:39;;;;;;;11.88;2.83;;;14.80;98.10;;;;;;4947038;28;20571;-65
2023/07/03 01:10:14;;;;;;;14.90;3.33;;;14.80;98.50;;;;;;4955376;28;20035;-65
2023/07/03 01:12:43;;;;;;;12.02;2.78;;;14.80;98.30;;;;;;4933096;28;20047;-57
2023/07/03 01:15:15;;;;;;;12.60;2.85;;;14.80;98.70;;;;;;4968013;28;20030;-63
2023/07/03 01:17:43;;;;;;;18.27;3.22;;;14.70;98.80;;;;;;4954344;28;20058;-63
2023/07/03 01:20:13;;;;;;;11.40;3.08;;;14.70;98.90;;;;;;4958737;28;20122;-63
2023/07/03 01:23:17;;;;;;;17.38;3.33;;;14.60;99.40;;;;;;4958009;28;20035;-63
2023/07/03 01:25:44;;;;;;;18.55;3.85;;;14.50;99.40;;;;;;4963734;28;20031;-63
2023/07/03 01:28:13;;;;;;;14.13;2.78;;;14.40;99.90;;;;;;4960971;28;20453;-63
2023/07/03 01:30:41;;;;;;;21.08;5.22;;;14.30;99.90;;;;;;4966478;28;20452;-59
2023/07/03 01:33:13;;;;;;;17.73;4.03;;;14.30;99.90;;;;;;4956298;28;20027;-63
2023/07/03 01:35:39;;;;;;;19.40;4.00;;;14.20;99.90;;;;;;4965757;28;20027;-61
2023/07/03 01:38:05;;;;;;;10.82;2.97;;;14.10;99.90;;;;;;4963486;28;20030;-63
2023/07/03 01:40:32;;;;;;;14.23;3.45;;;14.00;99.90;;;;;;4963806;28;20507;-64
2023/07/03 01:42:58;;;;;;;19.63;3.45;;;13.90;99.90;;;;;;4962396;28;20026;-64
2023/07/03 01:45:24;;;;;;;16.77;3.58;;;13.80;99.90;;;;;;4964544;28;20038;-63
2023/07/03 01:47:49;;;;;;;13.80;3.00;;;13.80;99.90;;;;;;4954650;28;20030;-64
2023/07/03 01:50:21;;;;;;;13.85;3.90;;;13.70;99.90;;;;;;4968729;28;20038;-64
2023/07/03 01:52:54;;;;;;;12.52;2.70;;;13.60;99.90;;;;;;4961411;28;20110;-63
2023/07/03 01:55:44;;;;;;;19.63;3.25;;;13.50;99.90;;;;;;4958526;28;20042;-63
2023/07/03 01:58:13;;;;;;;15.48;2.50;;;13.40;99.90;;;;;;4964023;28;20034;-64
2023/07/03 02:00:54;;;;;;;17.75;3.60;;;13.40;99.90;;;;;;4963310;28;20613;-59
2023/07/03 02:03:41;;;;;;;21.00;3.28;;;13.30;99.90;;;;;;4954938;28;20082;-63
2023/07/03 02:06:20;;;;;;;21.25;4.47;;;13.30;99.90;;;;;;4955484;28;20032;-65
2023/07/03 02:08:47;;;;;;;16.30;3.53;;;13.30;99.90;;;;;;4954673;28;20552;-65
2023/07/03 02:11:15;;;;;;;11.43;3.15;;;13.20;99.90;;;;;;4962450;28;20033;-64
2023/07/03 02:13:41;;;;;;;13.18;2.80;;;13.20;99.90;;;;;;4944803;28;20138;-65
2023/07/03 02:16:06;;;;;;;14.07;2.70;;;13.20;99.90;;;;;;4956864;28;20115;-63
2023/07/03 02:18:33;;;;;;;13.05;3.47;;;13.10;99.90;;;;;;4963550;28;20511;-63
2023/07/03 02:20:59;;;;;;;13.30;3.10;;;13.00;99.90;;;;;;4962147;28;20127;-64
2023/07/03 02:23:25;;;;;;;16.48;3.17;;;12.90;99.90;;;;;;4962578;28;20050;-65
2023/07/03 02:25:51;;;;;;;18.42;4.47;;;12.80;99.90;;;;;;4962613;28;20480;-62
2023/07/03 02:28:17;;;;;;;24.70;3.88;;;12.80;99.90;;;;;;4961200;28;20078;-64
2023/07/03 02:30:43;;;;;;;14.77;2.95;;;12.70;99.90;;;;;;4959534;28;20031;-63
2023/07/03 02:33:10;;;;;;;11.15;2.88;;;12.70;99.90;;;;;;4954848;28;20054;-63
2023/07/03 02:35:37;;;;;;;8.40;2.25;;;12.70;99.90;;;;;;4968387;28;20357;-65
2023/07/03 02:38:03;;;;;;;25.15;4.38;;;12.60;99.90;;;;;;4965786;28;20126;-59
2023/07/03 02:40:29;;;;;;;12.60;2.83;;;12.50;99.90;;;;;;4964549;28;20455;-65
2023/07/03 02:42:54;;;;;;;26.63;3.97;;;12.50;99.90;;;;;;4964233;28;20022;-64
2023/07/03 02:45:20;;;;;;;25.20;3.97;;;12.50;99.90;;;;;;4964959;28;20031;-64
2023/07/03 02:47:45;;;;;;;20.92;3.58;;;12.40;99.90;;;;;;4968884;28;20050;-64
2023/07/03 02:50:11;;;;;;;20.27;3.83;;;12.40;99.90;;;;;;4971188;28;20030;-63
2023/07/03 02:52:36;;;;;;;9.68;2.60;;;12.40;99.90;;;;;;4965054;28;20019;-63
2023/07/03 02:55:02;;;;;;;16.88;3.45;;;12.30;99.90;;;;;;4965063;28;20558;-63
2023/07/03 02:57:28;;;;;;;18.33;5.53;;;12.30;99.90;;;;;;4967325;28;20027;-64
2023/07/03 02:59:54;;;;;;;15.82;3.25;;;12.20;99.90;;;;;;4969412;28;20122;-64
2023/07/03 03:02:20;;;;;;;21.35;3.33;;;12.20;99.90;;;;;;4965846;28;20487;-64
2023/07/03 03:04:47;;;;;;;17.00;3.08;;;12.20;99.90;;;;;;4968340;28;20433;-64
2023/07/03 03:07:13;;;;;;;10.27;3.17;;;12.10;99.90;;;;;;4958773;28;20038;-65
2023/07/03 03:09:40;;;;;;;19.23;4.57;;;12.10;99.90;;;;;;4954566;28;22009;-64
2023/07/03 03:12:06;;;;;;;19.13;3.25;;;12.00;99.90;;;;;;4953753;28;20030;-62
2023/07/03 03:14:32;;;;;;;18.35;3.10;;;12.00;99.90;;;;;;4928354;28;20121;-65
2023/07/03 03:16:58;;;;;;;12.90;2.85;;;12.00;99.90;;;;;;4955198;28;20063;-63
2023/07/03 03:19:23;;;;;;;12.15;3.80;;;11.90;99.90;;;;;;4964984;28;20020;-63
2023/07/03 03:21:52;;;;;;;21.40;3.67;;;11.90;99.90;;;;;;4957615;28;20113;-64
2023/07/03 03:24:18;;;;;;;20.65;3.10;;;11.90;99.90;;;;;;4966360;28;20114;-65
2023/07/03 03:26:43;;;;;;;16.92;3.65;;;11.90;99.90;;;;;;4965115;28;20059;-63
2023/07/03 03:29:09;;;;;;;14.90;3.38;;;11.90;99.90;;;;;;4965012;28;20042;-60
2023/07/03 03:31:34;;;;;;;16.02;3.20;;;11.90;99.90;;;;;;4956334;28;20029;-66
2023/07/03 03:34:00;;;;;;;15.77;3.42;;;11.90;99.90;;;;;;4957303;28;20513;-63
2023/07/03 03:36:26;;;;;;;20.88;4.90;;;11.90;99.90;;;;;;4965685;28;20026;-64
2023/07/03 03:38:51;;;;;;;20.00;3.25;;;11.90;99.90;;;;;;4965616;28;20023;-63
2023/07/03 03:41:17;;;;;;;15.77;3.35;;;12.00;99.90;;;;;;4959066;28;20047;-64
2023/07/03 03:43:46;;;;;;;19.92;3.60;;;12.00;99.90;;;;;;4956197;28;20043;-65
2023/07/03 03:46:12;;;;;;;23.58;3.55;;;12.10;99.90;;;;;;4951794;28;20031;-65
2023/07/03 03:48:37;;;;;;;17.58;5.32;;;12.10;99.90;;;;;;4960731;28;20404;-67
2023/07/03 03:51:03;;;;;;;14.45;2.72;;;12.20;99.90;;;;;;4957839;28;20031;-64
2023/07/03 03:53:28;;;;;;;17.92;3.53;;;12.20;99.90;;;;;;4969492;28;20571;-65
2023/07/03 03:55:54;;;;;;;21.08;3.92;;;12.30;99.90;;;;;;4964723;28;20023;-64
2023/07/03 03:58:20;;;;;;;14.27;3.20;;;12.40;99.90;;;;;;4963510;28;20400;-66
2023/07/03 04:00:47;;;;;;;18.60;3.47;;;12.40;99.90;;;;;;4958476;28;20027;-64
2023/07/03 04:03:13;;;;;;;18.98;3.85;;;12.50;99.90;;;;;;4951899;28;20113;-64
2023/07/03 04:05:41;;;;;;;20.85;3.58;;;12.60;99.90;;;;;;4966899;28;20078;-63
2023/07/03 04:08:07;;;;;;;21.30;4.15;;;12.70;99.90;;;;;;4964609;28;20058;-65
2023/07/03 04:10:32;;;;;;;24.83;2.75;;;12.80;99.90;;;;;;4963029;28;20157;-64
2023/07/03 04:12:58;;;;;;;10.95;3.15;;;12.90;99.90;;;;;;4960689;28;20430;-64
2023/07/03 04:15:24;;;;;;;16.73;4.07;;;12.90;99.90;;;;;;4928288;28;20043;-64
2023/07/03 04:17:49;;;;;;;13.38;3.63;;;13.00;99.90;;;;;;4953645;28;20058;-65
2023/07/03 04:20:17;;;;;;;23.75;3.28;;;13.10;99.90;;;;;;4970935;28;20507;-63
2023/07/03 04:22:43;;;;;;;12.18;2.95;;;13.20;99.90;;;;;;4964860;28;20035;-63
2023/07/03 04:25:09;;;;;;;13.23;2.42;;;13.30;99.90;;;;;;4962147;28;20031;-65
2023/07/03 04:27:37;;;;;;;14.43;2.72;;;13.40;99.90;;;;;;4958969;28;20035;-66
2023/07/03 04:30:04;;;;;;;15.98;3.75;;;13.40;99.90;;;;;;4964783;28;20026;-64
2023/07/03 04:32:30;;;;;;;28.33;3.50;;;13.50;99.90;;;;;;4954147;28;20512;-64
2023/07/03 04:34:57;;;;;;;13.02;3.97;;;13.60;99.90;;;;;;4963349;28;20495;-64
2023/07/03 04:37:26;;;;;;;20.08;2.97;;;13.70;99.90;;;;;;4959962;28;20027;-64
2023/07/03 04:39:56;;;;;;;17.30;2.72;;;13.80;99.90;;;;;;4971020;28;20071;-63
2023/07/03 04:42:22;;;;;;;16.55;3.20;;;13.90;99.90;;;;;;4960337;28;20042;-64
2023/07/03 04:44:48;;;;;;;13.73;2.75;;;14.00;99.90;;;;;;4959893;28;20035;-62
2023/07/03 04:47:17;;;;;;;14.02;3.65;;;14.40;99.90;;;;;;4968200;28;20046;-65
2023/07/03 04:49:48;;;;;;;20.63;4.72;;;14.60;99.90;;;;;;4970680;28;20015;-64
2023/07/03 04:52:16;;;;;;;14.65;3.00;;;14.80;99.90;;;;;;4966269;28;20021;-64
2023/07/03 04:54:42;;;;;;;12.88;2.60;;;14.80;99.90;;;;;;4965192;28;20448;-61
2023/07/03 04:57:08;;;;;;;17.83;3.67;;;14.80;99.90;;;;;;4971215;28;20026;-64
2023/07/03 04:59:35;;;;;;;16.35;3.40;;;14.80;99.90;;;;;;4966756;28;20038;-63
2023/07/03 05:02:01;;;;;;;12.93;3.10;;;14.70;99.90;;;;;;4957946;28;20030;-64
2023/07/03 05:04:27;;;;;;;15.57;2.72;;;14.70;99.90;;;;;;4961505;28;20061;-64
2023/07/03 05:06:53;;;;;;;12.23;3.53;;;14.80;99.90;;;;;;4957031;28;20055;-66
2023/07/03 05:09:18;;;;;;;19.75;4.13;;;14.90;99.90;;;;;;4962005;28;20047;-64
2023/07/03 05:11:44;;;;;;;13.82;3.08;;;14.90;99.90;;;;;;4956532;28;20046;-63
2023/07/03 05:14:09;;;;;;;15.65;3.50;;;14.80;99.90;;;;;;4938504;28;20039;-63
2023/07/03 05:16:35;;;;;;;13.07;2.85;;;14.80;99.90;;;;;;4960148;28;20904;-65
2023/07/03 05:19:01;;;;;;;15.50;3.60;;;14.80;99.90;;;;;;4952558;28;20140;-65
2023/07/03 05:21:26;;;;;;;22.90;4.22;;;14.80;99.90;;;;;;4959539;28;20031;-64
2023/07/03 05:23:52;;;;;;;13.98;3.30;;;14.80;99.90;;;;;;4964852;28;20066;-64
2023/07/03 05:26:17;;;;;;;23.17;4.15;;;14.80;99.90;;;;;;4966702;28;20039;-63
2023/07/03 05:28:43;;;;;;;24.15;4.35;;;14.80;99.90;;;;;;4964795;28;20106;-57
2023/07/03 05:31:08;;;;;;;12.65;2.92;;;14.90;99.90;;;;;;4957845;28;20046;-63
2023/07/03 05:33:34;;;;;;;20.67;3.45;;;14.90;99.90;;;;;;4958154;28;20026;-65
2023/07/03 05:36:01;;;;;;;25.67;4.60;;;14.90;99.90;;;;;;4967140;28;20066;-63
2023/07/03 05:38:28;;;;;;;13.68;3.25;;;14.90;99.90;;;;;;4955110;28;20401;-63
2023/07/03 05:40:54;;;;;;;16.00;3.17;;;14.90;99.90;;;;;;4960113;28;20553;-64
2023/07/03 05:43:21;;;;;;;16.45;2.92;;;15.00;99.90;;;;;;4964841;28;20513;-65
2023/07/03 05:45:47;;;;;;;16.05;3.17;;;15.00;99.90;;;;;;4950152;28;20035;-64
2023/07/03 05:48:13;;;;;;;14.63;3.15;;;15.00;99.90;;;;;;4961722;28;20437;-64
2023/07/03 05:50:39;;;;;;;11.02;2.72;;;15.00;99.90;;;;;;4968849;28;20054;-66
2023/07/03 05:53:04;;;;;;;15.52;2.88;;;15.10;99.90;;;;;;4960606;28;20031;-65
2023/07/03 05:55:30;;;;;;;18.85;3.13;;;15.10;99.90;;;;;;4965271;28;20035;-65
2023/07/03 05:57:56;;;;;;;20.00;3.97;;;15.20;99.90;;;;;;4964763;28;20102;-64
2023/07/03 06:00:22;;;;;;;18.02;2.97;;;15.30;99.90;;;;;;4959548;28;20093;-65
2023/07/03 06:02:51;;;;;;;17.25;2.97;;;15.40;99.90;;;;;;4964928;28;20563;-65
2023/07/03 06:05:18;;;;;;;16.50;3.67;;;15.40;99.90;;;;;;4967662;28;20450;-64
2023/07/03 06:07:44;;;;;;;16.85;3.78;;;15.40;99.90;;;;;;4959443;28;20365;-66
2023/07/03 06:10:10;;;;;;;21.13;3.28;;;15.40;99.90;;;;;;4957364;28;20110;-65
2023/07/03 06:12:36;;;;;;;15.13;3.40;;;15.40;99.90;;;;;;4962215;28;20073;-64
2023/07/03 06:15:02;;;;;;;18.83;4.32;;;15.30;99.90;;;;;;4936312;28;20031;-66
2023/07/03 06:17:29;;;;;;;18.40;3.75;;;15.30;99.90;;;;;;4955826;28;20027;-65
2023/07/03 06:19:55;;;;;;;13.98;4.28;;;15.30;99.90;;;;;;4953115;28;20081;-62
2023/07/03 06:22:20;;;;;;;15.45;3.38;;;15.40;99.90;;;;;;4957800;28;20036;-65
2023/07/03 06:24:46;;;;;;;15.30;3.28;;;15.60;99.90;;;;;;4961586;28;20026;-66
2023/07/03 06:27:12;;;;;;;19.55;3.53;;;15.80;99.90;;;;;;4965804;28;20117;-64
2023/07/03 06:29:39;;;;;;;12.65;3.78;;;16.00;99.90;;;;;;4949349;28;20023;-64
2023/07/03 06:32:06;;;;;;;10.95;2.97;;;16.20;99.90;;;;;;4952659;28;20397;-65
2023/07/03 06:34:31;;;;;;;15.93;4.82;;;16.50;99.90;;;;;;4955149;28;20093;-63
2023/07/03 06:36:57;;;;;;;19.77;4.20;;;16.60;99.90;;;;;;4956412;28;20424;-66
2023/07/03 06:39:23;;;;;;;15.93;4.50;;;16.80;99.90;;;;;;4959167;28;20030;-65
2023/07/03 06:41:48;;;;;;;20.52;3.90;;;17.00;99.90;;;;;;4961316;28;20481;-65
2023/07/03 06:44:16;;;;;;;15.85;3.28;;;16.90;99.90;;;;;;4953704;28;20085;-64
2023/07/03 06:46:43;;;;;;;11.00;3.00;;;17.00;99.90;;;;;;4960879;28;20033;-63
2023/07/03 06:49:09;;;;;;;15.13;3.70;;;17.10;99.90;;;;;;4954289;28;20540;-64
2023/07/03 06:51:36;;;;;;;14.85;3.20;;;17.00;99.90;;;;;;4965101;28;20048;-64
2023/07/03 06:54:02;;;;;;;11.85;3.28;;;17.20;99.90;;;;;;4961116;28;20030;-65
2023/07/03 06:56:29;;;;;;;15.98;3.50;;;17.30;99.90;;;;;;4966164;28;20027;-64
2023/07/03 06:58:55;;;;;;;15.55;5.85;;;17.30;99.90;;;;;;4963385;28;20034;-65
2023/07/03 07:01:22;;;;;;;13.73;3.72;;;17.30;99.90;;;;;;4959868;28;20672;-66
2023/07/03 07:03:48;;;;;;;15.70;3.72;;;17.20;99.90;;;;;;4957278;28;20496;-65
2023/07/03 07:06:17;;;;;;;18.90;3.55;;;17.10;99.90;;;;;;4963630;28;20361;-65
2023/07/03 07:08:43;;;;;;;18.23;3.65;;;17.00;99.90;;;;;;4961224;28;20042;-62
2023/07/03 07:11:35;;;;;;;9.43;3.25;;;16.90;99.90;;;;;;4959348;28;20441;-64
2023/07/03 07:14:04;;;;;;;11.35;3.33;;;16.80;99.90;;;;;;4956583;28;20054;-63
2023/07/03 07:16:34;;;;;;;22.95;3.90;;;16.80;99.90;;;;;;4956238;28;20027;-65
2023/07/03 07:19:02;;;;;;;14.27;4.38;;;16.90;99.90;;;;;;4961642;28;20035;-65
2023/07/03 07:21:31;;;;;;;20.45;3.88;;;17.10;99.90;;;;;;4952876;28;20031;-64
2023/07/03 07:24:13;;;;;;;28.08;5.00;;;17.30;99.90;;;;;;4953541;28;20027;-62
2023/07/03 07:26:39;;;;;;;18.95;4.40;;;17.60;99.90;;;;;;4953474;28;20409;-63
2023/07/03 07:29:04;;;;;;;19.80;3.35;;;17.70;99.90;;;;;;4963730;28;20027;-65
2023/07/03 07:31:36;;;;;;;15.57;3.28;;;17.80;99.90;;;;;;4957966;28;20043;-60
2023/07/03 07:34:06;;;;;;;15.77;4.32;;;18.10;99.90;;;;;;4956916;28;20425;-65
2023/07/03 07:36:32;;;;;;;12.50;2.78;;;18.70;99.90;;;;;;4967225;28;20531;-65
2023/07/03 07:39:00;;;;;;;17.15;3.63;;;18.90;99.30;;;;;;4956497;28;20034;-64
2023/07/03 07:41:27;;;;;;;18.95;3.60;;;19.30;99.00;;;;;;4961899;28;20033;-64
2023/07/03 07:43:53;;;;;;;14.82;3.38;;;19.50;98.30;;;;;;4965209;28;20456;-64
2023/07/03 07:46:19;;;;;;;13.27;3.85;;;19.90;98.10;;;;;;4960966;28;20066;-64
2023/07/03 07:48:48;;;;;;;12.65;2.50;;;20.20;97.60;;;;;;4971543;28;20046;-61
2023/07/03 07:51:14;;;;;;;17.25;3.88;;;20.60;96.90;;;;;;4966055;28;20078;-65
2023/07/03 07:53:39;;;;;;;12.68;3.38;;;20.80;95.30;;;;;;4969282;28;20026;-65
2023/07/03 07:56:09;;;;;;;10.93;3.45;;;21.30;94.70;;;;;;4963348;28;20054;-66
2023/07/03 07:58:35;;;;;;;16.85;3.30;;;20.80;94.10;;;;;;4960763;28;20037;-65
2023/07/03 08:01:01;;;;;;;16.92;2.88;;;20.50;94.40;;;;;;4963442;28;20039;-62
2023/07/03 08:03:27;;;;;;;14.02;3.67;;;20.40;95.10;;;;;;4965869;28;20039;-67
2023/07/03 08:06:04;;;;;;;11.10;3.20;;;20.50;96.20;;;;;;4967718;28;20031;-66
2023/07/03 08:08:31;;;;;;;11.43;3.45;;;20.80;94.50;;;;;;4962459;28;20082;-66
2023/07/03 08:10:59;;;;;;;10.73;2.53;;;20.80;94.10;;;;;;4959753;28;20023;-66
2023/07/03 08:13:26;;;;;;;16.05;3.63;;;20.80;93.50;;;;;;4961331;28;20106;-64
2023/07/03 08:15:51;;;;;;;8.25;2.72;;;20.90;93.80;;;;;;4962456;28;20106;-65
2023/07/03 08:18:18;;;;;;;16.13;4.13;;;21.20;93.40;;;;;;4969351;28;20093;-64
2023/07/03 08:20:44;;;;;;;14.18;2.92;;;21.40;92.30;;;;;;4965123;28;20120;-64
2023/07/03 08:23:10;;;;;;;14.27;4.43;;;21.70;92.40;;;;;;4959759;28;20031;-66
2023/07/03 08:25:36;;;;;;;12.20;2.72;;;22.00;91.00;;;;;;4959129;28;20046;-66
2023/07/03 08:28:02;;;;;;;6.93;2.50;;;21.90;88.50;;;;;;4966021;28;20026;-65
2023/07/03 08:30:28;;;;;;;8.63;2.38;;;22.20;88.70;;;;;;4963469;28;20480;-66
2023/07/03 08:32:54;;;;;;;14.18;2.97;;;22.70;86.20;;;;;;4950564;28;20053;-65
2023/07/03 08:35:19;;;;;;;9.80;3.63;;;23.10;84.20;;;;;;4965901;28;20035;-65
2023/07/03 08:37:45;;;;;;;7.85;2.67;;;23.50;82.20;;;;;;4959901;28;20481;-66
2023/07/03 08:40:16;;;;;;;6.18;2.58;;;23.70;81.60;;;;;;4960283;28;20133;-65
2023/07/03 08:42:55;;;;;;;9.68;2.75;;;24.00;79.40;;;;;;4953938;28;20051;-65
2023/07/03 08:45:28;;;;;;;8.38;2.85;;;24.50;78.30;;;;;;4956959;28;20031;-64
2023/07/03 08:47:55;;;;;;;10.88;3.17;;;25.00;77.20;;;;;;4962827;28;20045;-66
2023/07/03 08:50:23;;;;;;;12.18;3.15;;;25.00;77.10;;;;;;4959321;28;20468;-65
2023/07/03 08:52:57;;;;;;;9.32;2.85;;;24.50;76.00;;;;;;4959711;28;20314;-65
2023/07/03 08:55:26;;;;;;;11.00;2.97;;;24.40;75.20;;;;;;4961991;28;20043;-64
2023/07/03 08:57:52;;;;;;;10.40;2.70;;;24.10;75.20;;;;;;4960207;28;20038;-64
2023/07/03 09:00:20;;;;;;;9.40;2.90;;;24.10;74.50;;;;;;4957720;28;20035;-64
2023/07/03 09:03:10;;;;;;;10.55;2.95;;;23.90;75.60;;;;;;4958769;28;20031;-61
2023/07/03 09:05:57;;;;;;;12.05;2.60;;;23.60;76.20;;;;;;4956171;28;20024;-64
2023/07/03 09:08:30;;;;;;;12.20;2.88;;;23.70;76.80;;;;;;4969262;28;20122;-65
2023/07/03 09:10:56;;;;;;;10.85;3.55;;;24.50;76.20;;;;;;4965082;28;20019;-63
2023/07/03 09:13:28;;;;;;;7.30;2.80;;;25.10;73.60;;;;;;4952234;28;20118;-64
2023/07/03 09:16:07;;;;;;;16.98;3.25;;;25.70;73.50;;;;;;4953638;28;20441;-63
2023/07/03 09:18:42;;;;;;;8.57;2.55;;;25.40;73.70;;;;;;4965756;28;20498;-65
2023/07/03 09:21:08;;;;;;;6.97;2.92;;;25.80;73.40;;;;;;4963031;28;20090;-63
2023/07/03 09:23:39;;;;;;;10.50;3.42;;;25.80;73.00;;;;;;4964042;28;20039;-61
2023/07/03 09:26:15;;;;;;;7.72;2.75;;;25.70;71.30;;;;;;4959109;28;20331;-61
2023/07/03 09:28:42;;;;;;;11.35;2.70;;;24.80;71.60;;;;;;4952384;28;20039;-64
2023/07/03 09:31:08;;;;;;;9.43;2.78;;;24.60;75.00;;;;;;4953952;28;20073;-63
2023/07/03 09:33:33;;;;;;;9.68;2.80;;;24.90;74.30;;;;;;4960795;28;20035;-64
2023/07/03 09:36:18;;;;;;;9.60;2.35;;;25.00;73.60;;;;;;4970875;28;20034;-64
2023/07/03 09:38:44;;;;;;;12.10;3.45;;;24.80;75.20;;;;;;4964018;28;20050;-62
2023/07/03 09:41:09;;;;;;;11.13;3.58;;;24.80;72.50;;;;;;4963450;28;21061;-63
2023/07/03 09:43:43;;;;;;;12.02;3.17;;;24.50;74.40;;;;;;4961149;28;20058;-63
2023/07/03 09:46:14;;;;;;;11.15;3.53;;;25.00;73.00;;;;;;4962175;28;20023;-64
2023/07/03 09:48:40;;;;;;;11.50;2.97;;;25.00;73.10;;;;;;4957349;28;20042;-64
2023/07/03 09:51:25;;;;;;;14.10;3.58;;;24.50;72.10;;;;;;4960233;28;20911;-63
2023/07/03 09:53:51;;;;;;;9.05;3.03;;;24.30;73.50;;;;;;4951201;28;20031;-62
2023/07/03 09:56:21;;;;;;;9.20;2.95;;;23.80;74.00;;;;;;4965386;28;20029;-64
2023/07/03 09:58:50;;;;;;;8.93;3.00;;;23.10;74.20;;;;;;4964582;28;20543;-62
2023/07/03 10:01:26;;;;;;;8.52;3.30;;;23.00;74.80;;;;;;4959512;28;20034;-65
2023/07/03 10:04:21;;;;;;;4.88;2.35;;;23.00;75.00;;;;;;4952188;28;20113;-64
2023/07/03 10:07:04;;;;;;;8.80;2.70;;;22.90;75.70;;;;;;4951591;28;20141;-61
2023/07/03 10:09:40;;;;;;;11.35;3.22;;;23.00;76.20;;;;;;4963159;28;20078;-64
2023/07/03 10:12:26;;;;;;;6.65;3.05;;;23.40;74.40;;;;;;4964717;28;20392;-64
2023/07/03 10:15:18;;;;;;;10.15;2.75;;;23.30;74.70;;;;;;4955530;28;20023;-64
2023/07/03 10:17:52;;;;;;;10.05;3.38;;;23.70;74.50;;;;;;4957239;28;20517;-66
2023/07/03 10:20:30;;;;;;;14.60;2.92;;;23.40;76.10;;;;;;4965652;28;20039;-64
2023/07/03 10:22:58;;;;;;;12.38;2.22;;;23.20;75.30;;;;;;4965005;28;20109;-64
2023/07/03 10:25:29;;;;;;;8.18;2.47;;;23.00;76.60;;;;;;4960232;28;20086;-63
2023/07/03 10:28:00;;;;;;;10.57;2.80;;;22.90;76.30;;;;;;4958300;28;20031;-64
2023/07/03 10:30:32;;;;;;;8.88;2.33;;;22.70;76.90;;;;;;4958941;28;20523;-63
2023/07/03 10:32:58;;;;;;;11.95;2.92;;;22.00;75.70;;;;;;4963425;28;20018;-65
2023/07/03 10:35:30;;;;;;;8.98;2.63;;;22.10;77.20;;;;;;4962600;28;20114;-65
2023/07/03 10:38:14;;;;;;;16.73;3.63;;;22.60;78.40;;;;;;4961782;28;20042;-66
2023/07/03 10:41:08;;;;;;;;;;;23.00;78.20;;;;;;4965494;28;20607;-63
2023/07/03 10:43:44;;;;;;;10.02;2.88;;;23.60;75.90;;;;;;4947107;28;20021;-64
2023/07/03 10:46:21;;;;;;;13.38;2.95;;;24.10;75.60;;;;;;4957242;28;20098;-63
2023/07/03 10:48:48;;;;;;;9.45;2.85;;;24.00;73.80;;;;;;4956618;28;20070;-60
2023/07/03 10:51:57;;;;;;;10.88;2.88;;;24.60;75.30;;;;;;4956320;28;20031;-62
2023/07/03 10:54:31;;;;;;;6.00;2.17;;;24.80;73.20;;;;;;4892500;29;20660;-63
2023/07/03 10:57:01;;;;;;;8.63;2.25;;;25.00;73.70;;;;;;4947310;28;20410;-64
2023/07/03 10:59:34;;;;;;;15.07;2.53;;;24.80;71.70;;;;;;4958873;28;20039;-62
2023/07/03 11:02:16;;;;;;;8.57;2.25;;;24.20;72.80;;;;;;4955621;28;20034;-64
2023/07/03 11:05:04;;;;;;;14.98;2.97;;;24.40;73.40;;;;;;4962239;28;20511;-64
2023/07/03 11:07:45;;;;;;;6.72;2.17;;;24.20;72.50;;;;;;4961144;28;20194;-62
2023/07/03 11:10:17;;;;;;;7.68;2.50;;;24.00;72.60;;;;;;4955712;28;20085;-64
2023/07/03 11:12:53;;;;;;;8.75;2.90;;;23.60;72.50;;;;;;4967161;28;20058;-65
2023/07/03 11:15:32;;;;;;;11.10;2.80;;;22.90;75.80;;;;;;4956417;28;20122;-64
2023/07/03 11:18:16;;;;;;;5.95;2.53;;;22.90;75.20;;;;;;4957104;28;20031;-62
2023/07/03 11:20:47;;;;;;;14.43;2.63;;;23.40;76.30;;;;;;4953006;28;20034;-64
2023/07/03 11:23:31;;;;;;;8.82;2.67;;;23.60;74.90;;;;;;4956784;28;20082;-62
2023/07/03 11:26:26;;;;;;;13.82;3.40;;;23.80;75.80;;;;;;4962481;28;20035;-62
2023/07/03 11:28:54;;;;;;;11.73;2.88;;;23.90;75.90;;;;;;4956194;28;20046;-63
2023/07/03 11:31:22;;;;;;;10.57;2.45;;;23.70;75.30;;;;;;4954415;28;20109;-63
2023/07/03 11:33:49;;;;;;;10.30;2.25;;;23.20;76.80;;;;;;4959435;28;20481;-63
2023/07/03 11:36:37;;;;;;;12.68;3.13;;;22.80;76.30;;;;;;4960719;28;20050;-63
2023/07/03 11:39:28;;;;;;;9.50;2.67;;;22.30;76.90;;;;;;4956422;28;20078;-64
2023/07/03 11:41:59;;;;;;;18.25;3.40;;;22.00;79.20;;;;;;4949565;28;20122;-62
2023/07/03 11:44:30;;;;;;;21.63;3.22;;;21.60;79.00;;;;;;4960477;28;20067;-63
2023/07/03 11:47:24;;;;;;;12.68;2.97;;;21.40;77.80;;;;;;4955580;28;20027;-63
2023/07/03 11:49:57;;;;;;;;;;;21.20;79.50;;;;;;4959481;28;20065;-63
2023/07/03 11:52:29;;;;;;;8.85;2.88;;;21.20;78.80;;;;;;4955268;28;19942;-63
2023/07/03 11:55:17;;;;;;;11.32;3.03;;;21.60;79.60;;;;;;4977993;28;20031;-63
2023/07/03 11:57:46;;;;;;;7.63;2.22;;;22.00;78.90;;;;;;4954881;28;20023;-63
2023/07/03 12:00:25;;;;;;;6.55;3.05;;;22.50;77.70;;;;;;4962265;28;20029;-65
2023/07/03 12:03:02;;;;;;;8.30;3.13;;;22.90;74.90;;;;;;4955461;28;20037;-63
2023/07/03 12:05:46;;;;;;;9.07;2.83;;;23.00;73.70;;;;;;4961192;28;20080;-62
2023/07/03 12:08:18;;;;;;;9.90;2.85;;;22.70;74.70;;;;;;4953077;28;20020;-64
2023/07/03 12:11:05;;;;;;;5.22;2.13;;;22.60;75.60;;;;;;4958948;28;20081;-63
2023/07/03 12:13:46;;;;;;;5.80;2.50;;;22.70;76.60;;;;;;4959853;28;20039;-63
2023/07/03 12:16:21;;;;;;;7.55;2.88;;;22.90;75.00;;;;;;4956443;28;20027;-64
2023/07/03 12:19:00;;;;;;;5.35;2.15;;;22.90;74.60;;;;;;4958498;28;20050;-61
2023/07/03 12:21:33;;;;;;;6.85;2.47;;;23.10;75.60;;;;;;4967114;28;20034;-64
2023/07/03 12:23:59;;;;;;;;;;;23.20;75.60;;;;;;4955399;28;20030;-62
2023/07/03 12:26:26;;;;;;;8.88;2.50;;;23.20;75.10;;;;;;4959078;28;20320;-62
2023/07/03 12:29:03;;;;;;;11.15;2.72;;;22.80;74.30;;;;;;4965073;28;20114;-64
2023/07/03 12:31:28;;;;;;;9.25;2.42;;;23.00;75.40;;;;;;4967138;28;20038;-63
2023/07/03 12:33:59;;;;;;;7.53;2.25;;;23.30;74.60;;;;;;4965725;28;20026;-63
2023/07/03 12:36:34;;;;;;;12.40;2.78;;;23.30;73.50;;;;;;4961349;28;20027;-62
2023/07/03 12:39:09;;;;;;;6.45;2.70;;;23.10;72.60;;;;;;4961893;28;20492;-63
2023/07/03 12:41:35;;;;;;;9.50;3.00;;;23.50;73.90;;;;;;4957278;28;20049;-64
2023/07/03 12:44:02;;;;;;;12.25;2.80;;;23.10;72.50;;;;;;4963475;28;20038;-64
2023/07/03 12:46:34;;;;;;;7.60;2.15;;;23.10;73.80;;;;;;4961303;28;20023;-65
2023/07/03 12:49:13;;;;;;;9.00;2.58;;;23.00;74.10;;;;;;4963877;28;20019;-63
2023/07/03 12:51:48;;;;;;;7.57;3.00;;;23.10;74.50;;;;;;4959618;28;20019;-63
2023/07/03 12:54:14;;;;;;;8.68;2.20;;;22.90;73.70;;;;;;4960052;28;20034;-63